Time;durP1;ratioP1;P1;durP2;ratioP2;P2;SDS_P1;SDS_P2;PMS_P1;PMS_P2;Temp;Humidity;BMP_temperature;BMP_pressure;BME280_temperature;BME280_humidity;BME280_pressure;Samples;Min_cycle;Max_cycle;Signal;HPM_P1;HPM_P2
2023/04/26 00:01:26;;;;;;;;;;;;;;;14.13;74.97;96046.25;5089054;28;19969;-71
2023/04/26 00:03:54;;;;;;;;;;;;;;;14.09;74.92;96037.00;5088655;28;19920;-70
2023/04/26 00:06:22;;;;;;;;;;;;;;;14.10;75.33;96040.41;5070947;28;20379;-70
2023/04/26 00:08:48;;;;;;;;;;;;;;;14.14;75.97;96041.84;5088436;28;19924;-70
2023/04/26 00:11:15;;;;;;;;;;;;;;;14.11;75.57;96035.09;5088592;28;19926;-72
2023/04/26 00:13:42;;;;;;;;;;;;;;;14.06;76.15;96039.81;5088417;28;20323;-70
2023/04/26 00:16:09;;;;;;;;;;;;;;;14.07;75.75;96038.06;5070158;28;20296;-72
2023/04/26 00:18:36;;;;;;;;;;;;;;;14.17;76.02;96039.00;5088510;28;20371;-70
2023/04/26 00:21:03;;;;;;;;;;;;;;;13.94;77.08;96035.53;5088088;28;20023;-72
2023/04/26 00:23:30;;;;;;;;;;;;;;;13.97;75.28;96030.13;5088449;28;19920;-71
2023/04/26 00:25:57;;;;;;;;;;;;;;;13.83;75.53;96038.09;5088078;28;19971;-70
2023/04/26 00:28:24;;;;;;;;;;;;;;;13.86;75.21;96036.13;5088373;28;19920;-69
2023/04/26 00:30:51;;;;;;;;;;;;;;;13.60;74.94;96024.19;5069893;28;19920;-69
2023/04/26 00:33:18;;;;;;;;;;;;;;;13.51;74.29;96031.84;5053072;28;20308;-68
2023/04/26 00:35:44;;;;;;;;;;;;;;;13.33;74.73;96028.00;5088252;28;20019;-69
2023/04/26 00:38:11;;;;;;;;;;;;;;;13.27;76.31;96028.44;5087890;28;20015;-69
2023/04/26 00:40:38;;;;;;;;;;;;;;;13.35;76.67;96028.72;5070397;28;20036;-67
2023/04/26 00:43:05;;;;;;;;;;;;;;;13.30;76.62;96023.00;5087796;28;19920;-69
2023/04/26 00:45:33;;;;;;;;;;;;;;;13.37;75.91;96024.25;5088131;28;20015;-69
2023/04/26 00:48:00;;;;;;;;;;;;;;;13.37;76.47;96032.03;5052991;28;20373;-69
2023/04/26 00:50:28;;;;;;;;;;;;;;;13.34;76.02;96027.06;5087883;28;20343;-69
2023/04/26 00:52:56;;;;;;;;;;;;;;;13.02;75.26;96030.16;5052959;28;19950;-69
2023/04/26 00:55:25;;;;;;;;;;;;;;;12.79;76.34;96027.56;5087614;28;20018;-70
2023/04/26 00:57:54;;;;;;;;;;;;;;;12.55;78.44;96022.28;5070144;28;19920;-69
2023/04/26 01:00:21;;;;;;;;;;;;;;;12.70;79.44;96034.22;5069521;28;19924;-70
2023/04/26 01:02:48;;;;;;;;;;;;;;;12.56;78.98;96023.97;5087783;28;19933;-70
2023/04/26 01:05:15;;;;;;;;;;;;;;;12.42;80.76;96024.09;5087171;28;19920;-69
2023/04/26 01:07:43;;;;;;;;;;;;;;;12.32;82.37;96022.25;5069339;28;19923;-68
2023/04/26 01:10:10;;;;;;;;;;;;;;;12.39;83.59;96016.50;5069591;28;19920;-67
2023/04/26 01:12:38;;;;;;;;;;;;;;;12.58;84.00;96013.47;5087509;28;19920;-68
2023/04/26 01:15:05;;;;;;;;;;;;;;;12.79;85.03;96015.41;5087949;28;20007;-68
2023/04/26 01:17:32;;;;;;;;;;;;;;;12.91;84.39;96008.50;5087325;28;19943;-68
2023/04/26 01:19:59;;;;;;;;;;;;;;;12.99;84.14;96011.38;5069605;28;20399;-69
2023/04/26 01:22:27;;;;;;;;;;;;;;;13.11;83.90;96009.72;5087131;28;19920;-70
2023/04/26 01:24:55;;;;;;;;;;;;;;;13.25;83.80;95999.94;5069408;28;19955;-69
2023/04/26 01:27:22;;;;;;;;;;;;;;;13.32;83.57;96005.53;5069496;28;20411;-68
2023/04/26 01:29:48;;;;;;;;;;;;;;;13.26;84.30;96004.22;5087082;28;20314;-68
2023/04/26 01:32:15;;;;;;;;;;;;;;;13.36;83.53;96002.59;5087980;28;19926;-69
2023/04/26 01:34:42;;;;;;;;;;;;;;;13.27;83.83;96002.44;5087065;28;20403;-69
2023/04/26 01:37:10;;;;;;;;;;;;;;;13.33;84.15;95991.59;5052496;28;20415;-70
2023/04/26 01:39:37;;;;;;;;;;;;;;;13.32;84.25;95990.75;5069159;28;19920;-69
2023/04/26 01:42:04;;;;;;;;;;;;;;;13.35;84.44;95987.97;5087097;28;19920;-69
2023/04/26 01:44:31;;;;;;;;;;;;;;;13.47;83.76;95983.59;5069414;28;19920;-70
2023/04/26 01:47:00;;;;;;;;;;;;;;;13.44;84.15;95974.25;5087128;28;20433;-70
2023/04/26 01:49:26;;;;;;;;;;;;;;;13.36;84.09;95971.41;5087453;28;20409;-69
2023/04/26 01:51:54;;;;;;;;;;;;;;;13.38;83.26;95966.91;5068747;28;19920;-69
2023/04/26 01:54:22;;;;;;;;;;;;;;;13.33;83.55;95971.63;5052543;28;19920;-70
2023/04/26 01:56:49;;;;;;;;;;;;;;;13.32;83.41;95966.53;5052450;28;19927;-69
2023/04/26 01:59:16;;;;;;;;;;;;;;;13.35;83.59;95956.75;5069043;28;19970;-70
2023/04/26 02:01:43;;;;;;;;;;;;;;;13.43;82.87;95961.38;5087105;28;19920;-69
2023/04/26 02:04:10;;;;;;;;;;;;;;;13.34;83.58;95952.47;5068928;28;20019;-69
2023/04/26 02:06:37;;;;;;;;;;;;;;;13.38;83.87;95948.72;5069450;28;19920;-69
2023/04/26 02:09:04;;;;;;;;;;;;;;;13.43;83.79;95953.56;5068919;28;20371;-69
2023/04/26 02:11:31;;;;;;;;;;;;;;;13.36;84.19;95949.75;5069436;28;19936;-69
2023/04/26 02:13:57;;;;;;;;;;;;;;;13.29;84.22;95945.97;5086991;28;20403;-70
2023/04/26 02:16:25;;;;;;;;;;;;;;;13.32;84.68;95945.72;5087116;28;20023;-69
2023/04/26 02:18:53;;;;;;;;;;;;;;;13.27;84.45;95938.25;5090564;28;19968;-71
2023/04/26 02:21:21;;;;;;;;;;;;;;;13.44;83.78;95950.00;5090806;28;19920;-68
2023/04/26 02:23:48;;;;;;;;;;;;;;;13.35;83.45;95942.91;5090526;28;20004;-68
2023/04/26 02:26:14;;;;;;;;;;;;;;;13.36;83.53;95944.56;5090224;28;19927;-68
2023/04/26 02:28:42;;;;;;;;;;;;;;;12.94;84.80;95943.31;5072663;28;19919;-68
2023/04/26 02:31:09;;;;;;;;;;;;;;;12.98;85.31;95945.56;5072007;28;20343;-68
2023/04/26 02:33:36;;;;;;;;;;;;;;;12.93;85.71;95947.69;5090374;28;19977;-68
2023/04/26 02:36:07;;;;;;;;;;;;;;;13.10;85.10;95948.25;5072005;28;19927;-68
2023/04/26 02:38:35;;;;;;;;;;;;;;;13.07;84.52;95950.13;5071997;28;19963;-68
2023/04/26 02:41:03;;;;;;;;;;;;;;;12.94;84.83;95946.72;5055426;28;19920;-69
2023/04/26 02:43:31;;;;;;;;;;;;;;;13.13;84.91;95951.44;5071454;28;19930;-69
2023/04/26 02:45:59;;;;;;;;;;;;;;;13.30;84.38;95948.44;5072143;28;19951;-69
2023/04/26 02:48:26;;;;;;;;;;;;;;;13.30;83.14;95948.44;5071583;28;19920;-70
2023/04/26 02:50:53;;;;;;;;;;;;;;;13.33;83.78;95950.00;5089965;28;19985;-68
2023/04/26 02:53:20;;;;;;;;;;;;;;;13.22;84.04;95952.53;5071794;28;19926;-69
2023/04/26 02:55:47;;;;;;;;;;;;;;;13.32;83.93;95948.31;5071959;28;19920;-69
2023/04/26 02:58:14;;;;;;;;;;;;;;;13.40;83.32;95954.63;5090115;28;20307;-68
2023/04/26 03:00:47;;;;;;;;;;;;;;;13.36;82.93;95953.19;5053422;28;19919;-68
2023/04/26 03:03:15;;;;;;;;;;;;;;;13.45;83.23;95960.31;5061173;28;19920;-71
2023/04/26 03:05:45;;;;;;;;;;;;;;;13.47;82.88;95971.44;5068672;28;20381;-71
2023/04/26 03:08:12;;;;;;;;;;;;;;;13.37;82.41;95972.22;5071803;28;19923;-70
2023/04/26 03:10:39;;;;;;;;;;;;;;;13.31;82.82;95977.88;5089889;28;19920;-72
2023/04/26 03:13:06;;;;;;;;;;;;;;;13.31;83.18;95983.09;5070630;28;19927;-69
2023/04/26 03:15:33;;;;;;;;;;;;;;;13.29;84.14;95987.56;5071724;28;19927;-72
2023/04/26 03:17:59;;;;;;;;;;;;;;;13.36;84.59;95991.38;5074231;28;19920;-68
2023/04/26 03:20:27;;;;;;;;;;;;;;;13.25;84.43;95994.75;5077170;28;20419;-71
2023/04/26 03:22:54;;;;;;;;;;;;;;;13.22;84.07;95999.34;5089897;28;19920;-68
2023/04/26 03:25:21;;;;;;;;;;;;;;;13.03;83.74;95994.63;5089521;28;19951;-73
2023/04/26 03:27:49;;;;;;;;;;;;;;;13.04;83.95;95997.13;5071434;28;20451;-68
2023/04/26 03:30:16;;;;;;;;;;;;;;;13.08;83.52;96003.75;5068191;28;19986;-69
2023/04/26 03:32:44;;;;;;;;;;;;;;;13.09;83.45;96004.59;5065833;28;20492;-69
2023/04/26 03:35:11;;;;;;;;;;;;;;;13.17;83.18;96004.88;5088904;28;19962;-69
2023/04/26 03:37:38;;;;;;;;;;;;;;;13.03;83.27;96000.66;5089155;28;19963;-70
2023/04/26 03:40:08;;;;;;;;;;;;;;;12.43;86.26;95994.59;5068473;28;19924;-68
2023/04/26 03:42:36;;;;;;;;;;;;;;;12.17;88.13;96003.34;5068846;28;20000;-68
2023/04/26 03:45:04;;;;;;;;;;;;;;;12.18;88.41;96007.59;5070630;28;19920;-71
2023/04/26 03:47:31;;;;;;;;;;;;;;;11.99;90.66;96007.22;5066745;28;20514;-70
2023/04/26 03:49:58;;;;;;;;;;;;;;;11.99;89.62;96015.00;5070436;28;19920;-70
2023/04/26 03:52:26;;;;;;;;;;;;;;;12.06;89.73;96005.84;5088316;28;19920;-70
2023/04/26 03:54:53;;;;;;;;;;;;;;;12.08;89.46;96003.97;5070380;28;19977;-69
2023/04/26 03:57:20;;;;;;;;;;;;;;;12.02;89.34;96004.38;5083026;28;19991;-69
2023/04/26 03:59:47;;;;;;;;;;;;;;;12.12;89.22;96008.00;5070127;28;19956;-68
2023/04/26 04:02:15;;;;;;;;;;;;;;;12.22;88.58;96022.03;5070102;28;20361;-70
2023/04/26 04:04:46;;;;;;;;;;;;;;;12.40;87.13;96025.97;5072080;28;20357;-69
2023/04/26 04:07:13;;;;;;;;;;;;;;;12.33;87.64;96032.50;5077441;28;19926;-68
2023/04/26 04:09:40;;;;;;;;;;;;;;;12.31;87.93;96031.78;5076072;28;19927;-69
2023/04/26 04:12:07;;;;;;;;;;;;;;;12.30;87.67;96035.34;5072265;28;19958;-69
2023/04/26 04:14:34;;;;;;;;;;;;;;;12.52;86.17;96030.31;5070798;28;20002;-70
2023/04/26 04:17:02;;;;;;;;;;;;;;;12.58;85.27;96034.25;5070352;28;19920;-68
2023/04/26 04:19:31;;;;;;;;;;;;;;;12.60;84.87;96034.97;5049994;28;20474;-72
2023/04/26 04:21:59;;;;;;;;;;;;;;;12.28;85.18;96035.41;5069786;28;19927;-70
2023/04/26 04:24:28;;;;;;;;;;;;;;;12.20;85.94;96039.47;5069830;28;19920;-69
2023/04/26 04:26:55;;;;;;;;;;;;;;;12.07;86.59;96028.28;5087936;28;19956;-67
2023/04/26 04:29:22;;;;;;;;;;;;;;;11.82;87.64;96028.25;5069807;28;20456;-69
2023/04/26 04:31:49;;;;;;;;;;;;;;;11.87;88.27;96013.22;5087201;28;19920;-70
2023/04/26 04:34:16;;;;;;;;;;;;;;;12.07;87.45;96023.94;5069980;28;19920;-72
2023/04/26 04:36:45;;;;;;;;;;;;;;;12.13;86.67;96022.66;5069710;28;20403;-70
2023/04/26 04:39:15;;;;;;;;;;;;;;;12.12;86.55;96015.81;5069139;28;19989;-69
2023/04/26 04:41:53;;;;;;;;;;;;;;;12.17;85.74;96018.94;5069462;28;19920;-69
2023/04/26 04:44:22;;;;;;;;;;;;;;;12.28;86.02;96017.25;5069262;28;20326;-69
2023/04/26 04:46:52;;;;;;;;;;;;;;;12.42;84.45;96018.06;5069819;28;20022;-71
2023/04/26 04:49:19;;;;;;;;;;;;;;;12.67;83.80;96025.81;5069133;28;19920;-69
2023/04/26 04:51:46;;;;;;;;;;;;;;;12.93;82.58;96017.84;5092021;28;20367;-69
2023/04/26 04:54:15;;;;;;;;;;;;;;;12.92;80.54;95966.78;5058593;28;19995;-69
2023/04/26 04:56:42;;;;;;;;;;;;;;;13.76;79.52;96016.09;5088517;28;19919;-68
2023/04/26 04:59:10;;;;;;;;;;;;;;;13.95;77.48;96023.38;5069357;28;20377;-69
2023/04/26 05:01:37;;;;;;;;;;;;;;;14.46;75.71;96017.66;5087581;28;19934;-69
2023/04/26 05:04:09;;;;;;;;;;;;;;;14.84;74.57;96024.25;5069676;28;19973;-71
2023/04/26 05:06:38;;;;;;;;;;;;;;;15.05;73.59;96025.97;5069256;28;19920;-69
2023/04/26 05:09:05;;;;;;;;;;;;;;;15.22;72.48;96027.25;5053026;28;19985;-71
2023/04/26 05:11:34;;;;;;;;;;;;;;;15.28;71.58;96031.97;5069243;28;19960;-70
2023/04/26 05:14:03;;;;;;;;;;;;;;;15.09;71.81;96027.41;5087202;28;19939;-70
2023/04/26 05:16:30;;;;;;;;;;;;;;;14.98;72.43;96021.38;5086953;28;19955;-71
2023/04/26 05:19:22;;;;;;;;;;;;;;;15.14;71.70;96014.00;5072047;28;19992;-72
2023/04/26 05:21:51;;;;;;;;;;;;;;;15.15;71.79;96010.41;5069338;28;20576;-73
2023/04/26 05:24:21;;;;;;;;;;;;;;;15.10;72.22;96010.81;5063655;28;20414;-68
2023/04/26 05:26:48;;;;;;;;;;;;;;;15.31;71.38;96005.66;5065533;28;20201;-70
2023/04/26 05:29:31;;;;;;;;;;;;;;;15.27;72.24;96010.25;5066863;28;19974;-67
2023/04/26 05:31:57;;;;;;;;;;;;;;;15.42;71.47;96008.19;5066821;28;20383;-69
2023/04/26 05:34:40;;;;;;;;;;;;;;;15.76;72.11;96001.91;5067332;28;19928;-70
2023/04/26 05:37:10;;;;;;;;;;;;;;;15.49;73.99;96009.41;5065702;28;19920;-70
2023/04/26 05:39:36;;;;;;;;;;;;;;;15.53;74.51;96008.19;5066413;28;20410;-70
2023/04/26 05:42:03;;;;;;;;;;;;;;;15.77;73.45;96003.56;5064870;28;19920;-71
2023/04/26 05:44:30;;;;;;;;;;;;;;;15.62;72.90;96012.66;5048767;28;20299;-69
2023/04/26 05:46:57;;;;;;;;;;;;;;;15.15;72.98;96011.25;5065300;28;20387;-72
2023/04/26 05:49:25;;;;;;;;;;;;;;;15.05;74.14;96020.78;5065190;28;19920;-71
2023/04/26 05:51:56;;;;;;;;;;;;;;;14.96;74.49;96018.88;5067748;28;20377;-71
2023/04/26 05:54:31;;;;;;;;;;;;;;;14.46;75.38;96022.03;5069334;28;20018;-70
2023/04/26 05:56:58;;;;;;;;;;;;;;;14.21;75.44;96023.03;5070938;28;20257;-69
2023/04/26 05:59:54;;;;;;;;;;;;;;;14.05;76.43;96019.97;5069669;28;20402;-75
2023/04/26 06:02:44;;;;;;;;;;;;;;;13.94;78.22;96019.91;5068909;28;19920;-70
2023/04/26 06:05:16;;;;;;;;;;;;;;;14.30;77.04;96022.34;5069029;28;19927;-69
2023/04/26 06:07:44;;;;;;;;;;;;;;;14.97;75.49;96020.56;5070139;28;19934;-68
2023/04/26 06:10:12;;;;;;;;;;;;;;;14.41;75.05;96019.78;5052102;28;20011;-70
2023/04/26 06:12:39;;;;;;;;;;;;;;;14.30;75.32;96021.56;5035590;28;20037;-70
2023/04/26 06:15:07;;;;;;;;;;;;;;;14.75;73.73;96017.16;5068296;28;19974;-71
2023/04/26 06:17:36;;;;;;;;;;;;;;;14.66;73.13;96021.31;5069308;28;20323;-70
2023/04/26 06:20:06;;;;;;;;;;;;;;;15.12;71.74;96015.91;5067731;28;20384;-72
2023/04/26 06:22:33;;;;;;;;;;;;;;;15.46;71.64;96025.28;5071244;28;20444;-70
2023/04/26 06:24:59;;;;;;;;;;;;;;;15.53;70.69;96028.25;5090116;28;19920;-70
2023/04/26 06:27:26;;;;;;;;;;;;;;;15.42;71.01;96027.34;5071757;28;19977;-73
2023/04/26 06:29:54;;;;;;;;;;;;;;;15.67;70.69;96025.31;5055281;28;20011;-71
2023/04/26 06:32:22;;;;;;;;;;;;;;;15.78;69.44;96023.50;5071746;28;19927;-71
2023/04/26 06:34:49;;;;;;;;;;;;;;;15.64;69.22;96018.56;5072315;28;20291;-70
2023/04/26 06:37:17;;;;;;;;;;;;;;;16.08;69.48;96020.94;5055226;28;20006;-72
2023/04/26 06:39:44;;;;;;;;;;;;;;;15.70;69.64;96033.75;5089598;28;19959;-71
2023/04/26 06:42:12;;;;;;;;;;;;;;;15.28;70.55;96024.16;5067937;28;19977;-70
2023/04/26 06:44:52;;;;;;;;;;;;;;;14.99;71.59;96012.59;5052710;28;20077;-75
2023/04/26 06:47:42;;;;;;;;;;;;;;;15.19;70.02;96017.03;5051954;28;19921;-69
2023/04/26 06:50:09;;;;;;;;;;;;;;;15.30;69.21;96012.63;5051377;28;20015;-70
2023/04/26 06:52:36;;;;;;;;;;;;;;;15.62;67.98;96020.47;5051527;28;20400;-69
2023/04/26 06:55:03;;;;;;;;;;;;;;;15.74;66.46;96019.50;5069167;28;19921;-71
2023/04/26 06:57:31;;;;;;;;;;;;;;;16.06;66.34;96015.03;5069304;28;19963;-69
2023/04/26 06:59:58;;;;;;;;;;;;;;;16.52;65.45;96011.16;5069358;28;19982;-70
2023/04/26 07:02:25;;;;;;;;;;;;;;;17.07;63.85;96023.72;5071087;28;19955;-70
2023/04/26 07:04:52;;;;;;;;;;;;;;;17.05;61.99;96020.41;5056393;28;20392;-69
2023/04/26 07:07:19;;;;;;;;;;;;;;;16.73;63.16;96017.16;5069801;28;19920;-77
2023/04/26 07:09:48;;;;;;;;;;;;;;;16.77;63.07;96015.94;5051374;28;19970;-72
2023/04/26 07:12:15;;;;;;;;;;;;;;;16.60;62.36;96008.72;5062183;28;19955;-71
2023/04/26 07:14:42;;;;;;;;;;;;;;;16.48;63.93;96012.34;5088884;28;19967;-70
2023/04/26 07:17:15;;;;;;;;;;;;;;;16.87;63.05;96006.34;5089141;28;20407;-69
2023/04/26 07:19:42;;;;;;;;;;;;;;;16.34;62.11;96007.47;5035372;28;20018;-72
2023/04/26 07:22:09;;;;;;;;;;;;;;;16.40;63.03;95999.13;5069412;28;20644;-70
2023/04/26 07:24:36;;;;;;;;;;;;;;;15.91;64.27;96000.63;5059378;28;19927;-72
2023/04/26 07:27:03;;;;;;;;;;;;;;;15.84;63.32;96001.28;5089806;28;19982;-72
2023/04/26 07:29:42;;;;;;;;;;;;;;;15.86;63.38;96007.19;5072520;28;19920;-70
2023/04/26 07:32:10;;;;;;;;;;;;;;;16.16;62.65;96004.63;5070467;28;19920;-71
2023/04/26 07:34:36;;;;;;;;;;;;;;;16.20;62.35;95999.03;5088562;28;19984;-69
2023/04/26 07:37:03;;;;;;;;;;;;;;;16.74;61.57;96001.34;5053563;28;19920;-71
2023/04/26 07:39:30;;;;;;;;;;;;;;;17.06;59.75;96004.59;5088785;28;19927;-70
2023/04/26 07:41:57;;;;;;;;;;;;;;;17.16;59.63;96011.63;5088098;28;20011;-72
2023/04/26 07:44:24;;;;;;;;;;;;;;;16.82;59.23;96008.50;5088358;28;20264;-69
2023/04/26 07:46:51;;;;;;;;;;;;;;;16.41;60.93;95998.97;5087508;28;19927;-70
2023/04/26 07:49:18;;;;;;;;;;;;;;;16.40;60.86;96009.56;5043476;28;19926;-70
2023/04/26 07:51:45;;;;;;;;;;;;;;;16.50;61.05;96007.84;5087979;28;19969;-71
2023/04/26 07:54:12;;;;;;;;;;;;;;;17.07;60.13;96003.63;5088249;28;19927;-69
2023/04/26 07:56:38;;;;;;;;;;;;;;;17.43;57.71;96004.78;5036537;28;20366;-70
2023/04/26 07:59:05;;;;;;;;;;;;;;;17.66;56.31;96006.19;5069650;28;20478;-74
2023/04/26 08:01:33;;;;;;;;;;;;;;;17.72;56.55;96008.25;5088221;28;19920;-72
2023/04/26 08:04:00;;;;;;;;;;;;;;;18.00;56.83;96013.59;5069242;28;19920;-71
2023/04/26 08:06:28;;;;;;;;;;;;;;;17.80;55.88;96003.13;5087667;28;19920;-71
2023/04/26 08:08:55;;;;;;;;;;;;;;;18.21;55.02;96007.22;5052930;28;19920;-70
2023/04/26 08:11:21;;;;;;;;;;;;;;;18.41;53.86;96010.59;5069612;28;19931;-70
2023/04/26 08:13:48;;;;;;;;;;;;;;;18.47;54.86;96012.69;5087515;28;19962;-69
2023/04/26 08:16:16;;;;;;;;;;;;;;;17.88;57.16;96008.53;5051590;28;19919;-71
2023/04/26 08:18:43;;;;;;;;;;;;;;;18.14;56.48;96000.06;5087931;28;19924;-71
2023/04/26 08:21:12;;;;;;;;;;;;;;;18.45;54.15;96001.50;5087290;28;20027;-71
2023/04/26 08:23:39;;;;;;;;;;;;;;;18.63;51.95;96002.41;5087644;28;19926;-73
2023/04/26 08:26:06;;;;;;;;;;;;;;;18.73;48.69;96002.38;5087577;28;20043;-70
2023/04/26 08:28:34;;;;;;;;;;;;;;;18.48;48.21;95988.97;5069617;28;19928;-71
2023/04/26 08:31:01;;;;;;;;;;;;;;;18.35;47.50;95956.13;5087390;28;20010;-71
2023/04/26 08:33:28;;;;;;;;;;;;;;;18.65;48.78;95990.81;5087020;28;19927;-69
2023/04/26 08:35:55;;;;;;;;;;;;;;;18.86;49.77;96011.56;5069279;28;19920;-70
2023/04/26 08:38:23;;;;;;;;;;;;;;;18.71;50.30;95994.66;5087095;28;20387;-68
2023/04/26 08:40:50;;;;;;;;;;;;;;;18.43;51.45;95995.56;5072235;28;19978;-69
2023/04/26 08:43:17;;;;;;;;;;;;;;;18.39;51.90;95994.19;5067259;28;19943;-70
2023/04/26 08:45:45;;;;;;;;;;;;;;;18.27;51.71;95993.56;5048958;28;19927;-69
2023/04/26 08:48:16;;;;;;;;;;;;;;;18.48;52.11;95996.00;5032333;28;19920;-71
2023/04/26 08:50:45;;;;;;;;;;;;;;;18.41;52.86;95997.50;5048645;28;19920;-70
2023/04/26 08:53:20;;;;;;;;;;;;;;;18.29;52.61;96006.50;5032014;28;19963;-70
2023/04/26 08:55:50;;;;;;;;;;;;;;;18.49;52.39;96005.50;5066308;28;20455;-70
2023/04/26 08:58:17;;;;;;;;;;;;;;;18.39;52.51;96002.06;5066326;28;20039;-71
2023/04/26 09:00:45;;;;;;;;;;;;;;;18.35;52.66;96003.31;5066138;28;19924;-70
2023/04/26 09:03:12;;;;;;;;;;;;;;;18.08;53.15;96006.69;5066634;28;19920;-72
2023/04/26 09:05:42;;;;;;;;;;;;;;;18.25;53.13;96007.75;5066353;28;19920;-72
2023/04/26 09:08:17;;;;;;;;;;;;;;;18.31;52.80;96002.78;5066521;28;19924;-71
2023/04/26 09:10:44;;;;;;;;;;;;;;;18.64;51.65;95999.66;5049200;28;19950;-73
2023/04/26 09:13:11;;;;;;;;;;;;;;;18.84;51.83;95997.75;5066679;28;20019;-69
2023/04/26 09:15:38;;;;;;;;;;;;;;;18.65;53.23;95992.59;5031947;28;20015;-69
2023/04/26 09:18:19;;;;;;;;;;;;;;;18.49;52.94;95990.59;5066684;28;20358;-70
2023/04/26 09:21:00;;;;;;;;;;;;;;;18.38;53.28;96000.41;5066353;28;19976;-71
2023/04/26 09:23:27;;;;;;;;;;;;;;;18.33;54.10;95986.91;5066453;28;19963;-70
2023/04/26 09:25:54;;;;;;;;;;;;;;;18.19;55.04;95992.59;5047325;28;19920;-70
2023/04/26 09:28:22;;;;;;;;;;;;;;;18.03;56.29;95992.38;5066365;28;19921;-71
2023/04/26 09:30:49;;;;;;;;;;;;;;;17.71;57.74;95997.91;5066410;28;19963;-70
2023/04/26 09:33:15;;;;;;;;;;;;;;;17.57;57.10;95993.94;5032119;28;19920;-70
2023/04/26 09:35:43;;;;;;;;;;;;;;;17.62;57.93;96004.81;5048423;28;20007;-70
2023/04/26 09:38:13;;;;;;;;;;;;;;;17.54;56.98;96009.91;5047940;28;20434;-69
2023/04/26 09:40:47;;;;;;;;;;;;;;;17.47;57.58;96011.41;5066441;28;19981;-69
2023/04/26 09:43:18;;;;;;;;;;;;;;;17.37;57.44;96012.34;5065906;28;20344;-71
2023/04/26 09:45:49;;;;;;;;;;;;;;;17.23;58.39;96007.53;5048117;28;19927;-70
2023/04/26 09:48:16;;;;;;;;;;;;;;;17.12;62.67;96008.47;5047834;28;19924;-71
2023/04/26 09:50:47;;;;;;;;;;;;;;;17.01;63.80;96009.41;5047913;28;19985;-69
2023/04/26 09:53:26;;;;;;;;;;;;;;;16.70;64.97;96030.50;5048712;28;19927;-69
2023/04/26 09:55:54;;;;;;;;;;;;;;;16.38;65.14;96022.78;5066318;28;19978;-71
2023/04/26 09:58:22;;;;;;;;;;;;;;;15.95;69.19;96027.34;5048559;28;19959;-71
2023/04/26 10:00:53;;;;;;;;;;;;;;;15.71;69.88;96030.19;5048184;28;19981;-70
2023/04/26 10:03:21;;;;;;;;;;;;;;;15.52;71.32;96024.00;5048459;28;19927;-69
2023/04/26 10:05:48;;;;;;;;;;;;;;;15.40;71.92;96030.97;5066126;28;19921;-70
2023/04/26 10:08:15;;;;;;;;;;;;;;;15.28;71.13;96021.53;5047734;28;19951;-69
2023/04/26 10:10:42;;;;;;;;;;;;;;;15.36;72.59;96030.41;5066034;28;19920;-69
2023/04/26 10:13:09;;;;;;;;;;;;;;;15.12;73.40;96018.50;5065904;28;19969;-71
2023/04/26 10:15:38;;;;;;;;;;;;;;;15.28;71.98;96026.75;5066398;28;19970;-70
2023/04/26 10:18:04;;;;;;;;;;;;;;;15.16;72.55;96017.31;5047553;28;20019;-69
2023/04/26 10:20:32;;;;;;;;;;;;;;;15.24;67.16;96022.72;5047924;28;19925;-70
2023/04/26 10:23:00;;;;;;;;;;;;;;;15.15;66.89;96015.63;5066016;28;19921;-69
2023/04/26 10:25:37;;;;;;;;;;;;;;;15.06;68.44;96009.41;5047881;28;19924;-72
2023/04/26 10:28:04;;;;;;;;;;;;;;;15.23;68.14;96003.63;5066286;28;20453;-72
2023/04/26 10:30:31;;;;;;;;;;;;;;;15.42;68.71;96010.81;5065598;28;20422;-73
2023/04/26 10:32:58;;;;;;;;;;;;;;;15.65;68.58;95999.34;5031584;28;19931;-70
2023/04/26 10:35:25;;;;;;;;;;;;;;;15.45;65.87;96001.00;5047690;28;19927;-70
2023/04/26 10:37:58;;;;;;;;;;;;;;;15.66;65.89;95998.38;5066655;28;20031;-70
2023/04/26 10:40:29;;;;;;;;;;;;;;;15.92;64.53;96001.47;5069599;28;19920;-72
2023/04/26 10:43:09;;;;;;;;;;;;;;;16.47;63.25;96000.22;5051362;28;20023;-70
2023/04/26 10:45:36;;;;;;;;;;;;;;;16.80;62.10;95984.28;5051594;28;19989;-73
2023/04/26 10:48:27;;;;;;;;;;;;;;;17.05;61.19;96000.31;5051477;28;20396;-71
2023/04/26 10:51:00;;;;;;;;;;;;;;;16.52;58.31;95991.09;5069576;28;19920;-71
2023/04/26 10:53:28;;;;;;;;;;;;;;;16.88;59.69;95989.66;5051467;28;20327;-69
2023/04/26 10:55:56;;;;;;;;;;;;;;;17.28;59.44;95993.06;5068772;28;20019;-70
2023/04/26 10:58:39;;;;;;;;;;;;;;;17.17;55.96;95993.19;5051275;28;19948;-71
2023/04/26 11:01:07;;;;;;;;;;;;;;;17.21;56.44;95994.56;5068800;28;19931;-68
2023/04/26 11:03:34;;;;;;;;;;;;;;;16.78;54.99;95983.59;5050805;28;19965;-69
2023/04/26 11:06:09;;;;;;;;;;;;;;;17.14;52.80;95988.22;5068603;28;19964;-70
2023/04/26 11:08:35;;;;;;;;;;;;;;;17.15;54.10;95984.63;5050903;28;19979;-73
2023/04/26 11:11:02;;;;;;;;;;;;;;;17.21;54.26;95999.00;5069337;28;20018;-69
2023/04/26 11:13:29;;;;;;;;;;;;;;;17.24;53.46;95986.44;5068402;28;19924;-69
2023/04/26 11:16:03;;;;;;;;;;;;;;;17.35;52.99;95981.06;5069162;28;19924;-70
2023/04/26 11:18:30;;;;;;;;;;;;;;;17.43;53.45;95986.47;5069140;28;19958;-69
2023/04/26 11:20:58;;;;;;;;;;;;;;;17.59;53.08;95986.78;5071643;28;19927;-72
2023/04/26 11:23:26;;;;;;;;;;;;;;;17.65;51.33;95967.88;5068584;28;19920;-70
2023/04/26 11:25:57;;;;;;;;;;;;;;;17.52;48.87;95983.03;5050715;28;19942;-72
2023/04/26 11:28:50;;;;;;;;;;;;;;;17.46;49.12;95978.31;5050825;28;19924;-70
2023/04/26 11:31:18;;;;;;;;;;;;;;;17.38;48.93;95993.88;5068446;28;19920;-70
2023/04/26 11:33:45;;;;;;;;;;;;;;;17.00;49.14;95986.00;5068591;28;19920;-71
2023/04/26 11:36:16;;;;;;;;;;;;;;;17.27;49.69;95972.28;5068875;28;20453;-70
2023/04/26 11:38:43;;;;;;;;;;;;;;;16.81;49.51;95975.50;5050740;28;19977;-69
2023/04/26 11:41:10;;;;;;;;;;;;;;;16.97;50.03;95967.94;5068579;28;19952;-70
2023/04/26 11:43:38;;;;;;;;;;;;;;;17.24;48.53;95965.50;5050256;28;19920;-70
2023/04/26 11:46:06;;;;;;;;;;;;;;;17.32;45.64;95967.44;5068496;28;20011;-70
2023/04/26 11:48:34;;;;;;;;;;;;;;;17.39;46.03;95971.16;5067672;28;20415;-70
2023/04/26 11:51:02;;;;;;;;;;;;;;;17.34;45.68;95961.09;5050242;28;19977;-71
2023/04/26 11:53:41;;;;;;;;;;;;;;;17.33;46.50;95956.81;5050119;28;19943;-70
2023/04/26 11:56:16;;;;;;;;;;;;;;;17.21;45.96;95959.75;5067954;28;20003;-70
2023/04/26 11:58:49;;;;;;;;;;;;;;;17.24;44.91;95957.66;5068416;28;19924;-70
2023/04/26 12:01:24;;;;;;;;;;;;;;;17.40;44.96;95957.94;5067804;28;19927;-70
2023/04/26 12:03:55;;;;;;;;;;;;;;;17.36;45.90;95958.34;5050289;28;19920;-70
2023/04/26 12:06:41;;;;;;;;;;;;;;;17.37;45.50;95952.97;5067996;28;20497;-72
2023/04/26 12:09:08;;;;;;;;;;;;;;;17.18;45.52;95966.06;5067686;28;20389;-70
2023/04/26 12:11:35;;;;;;;;;;;;;;;17.03;45.54;95970.03;5068202;28;19962;-70
2023/04/26 12:14:02;;;;;;;;;;;;;;;16.84;46.46;95964.75;5049376;28;19920;-70
2023/04/26 12:16:29;;;;;;;;;;;;;;;16.84;46.11;95969.97;5067905;28;19924;-69
2023/04/26 12:18:56;;;;;;;;;;;;;;;16.61;45.76;95976.41;5049690;28;20362;-72
2023/04/26 12:21:23;;;;;;;;;;;;;;;16.46;45.87;95975.91;5067507;28;19920;-69
2023/04/26 12:23:51;;;;;;;;;;;;;;;16.53;45.17;95971.00;5067701;28;19978;-70
2023/04/26 12:26:19;;;;;;;;;;;;;;;16.48;46.06;95981.00;5067940;28;19982;-70
2023/04/26 12:28:46;;;;;;;;;;;;;;;16.51;46.53;95978.97;5067946;28;20044;-70
2023/04/26 12:31:12;;;;;;;;;;;;;;;16.43;45.64;95972.72;5067290;28;19920;-70
2023/04/26 12:33:39;;;;;;;;;;;;;;;16.46;46.81;95977.69;5067606;28;20039;-70
2023/04/26 12:36:10;;;;;;;;;;;;;;;16.42;46.01;95978.91;5049129;28;19921;-71
2023/04/26 12:38:38;;;;;;;;;;;;;;;16.30;46.43;95976.38;5067002;28;19977;-70
2023/04/26 12:41:05;;;;;;;;;;;;;;;16.13;47.11;95982.22;5067364;28;19921;-69
2023/04/26 12:43:32;;;;;;;;;;;;;;;15.98;47.58;95978.28;5067168;28;19920;-70
2023/04/26 12:45:59;;;;;;;;;;;;;;;15.91;48.41;95979.75;5066975;28;19921;-70
2023/04/26 12:48:27;;;;;;;;;;;;;;;15.97;48.10;95987.06;5048786;28;19924;-69
2023/04/26 12:50:53;;;;;;;;;;;;;;;15.98;48.21;95987.88;5049314;28;19927;-71
2023/04/26 12:53:20;;;;;;;;;;;;;;;15.95;47.59;95985.56;5048708;28;19950;-69
2023/04/26 12:55:47;;;;;;;;;;;;;;;15.89;47.05;95984.25;5084229;28;20477;-72